Time;durP1;ratioP1;P1;durP2;ratioP2;P2;SDS_P1;SDS_P2;PMS_P1;PMS_P2;Temp;Humidity;BMP_temperature;BMP_pressure;BME280_temperature;BME280_humidity;BME280_pressure;Samples;Min_cycle;Max_cycle;Signal;HPM_P1;HPM_P2
2022/08/08 00:01:57;;;;;;;;;;;19.90;65.80;;;;;;5116999;28;20019;-79
2022/08/08 00:04:35;;;;;;;;;;;19.90;66.10;;;;;;5116766;28;20326;-77
2022/08/08 00:07:00;;;;;;;;;;;19.90;66.00;;;;;;5116910;28;19972;-78
2022/08/08 00:09:44;;;;;;;;;;;19.90;67.10;;;;;;5116880;28;20376;-81
2022/08/08 00:12:13;;;;;;;;;;;19.70;69.30;;;;;;5116653;28;19994;-80
2022/08/08 00:14:39;;;;;;;;;;;19.70;69.10;;;;;;5117247;28;19908;-78
2022/08/08 00:17:10;;;;;;;;;;;19.80;68.50;;;;;;5098336;28;19967;-79
2022/08/08 00:19:53;;;;;;;;;;;19.70;69.40;;;;;;5116872;28;19943;-80
2022/08/08 00:22:27;;;;;;;;;;;19.80;69.40;;;;;;5116601;28;19953;-78
2022/08/08 00:24:59;;;;;;;;;;;19.70;69.60;;;;;;5116784;28;19912;-80
2022/08/08 00:27:25;;;;;;;;;;;19.80;69.70;;;;;;5115764;28;19911;-79
2022/08/08 00:29:51;;;;;;;;;;;19.90;69.10;;;;;;5116384;28;19912;-79
2022/08/08 00:32:22;;;;;;;;;;;19.90;69.30;;;;;;5116396;28;19908;-81
2022/08/08 00:37:53;;;;;;;;;;;19.80;69.80;;;;;;5115950;28;19922;-78
2022/08/08 00:40:19;;;;;;;;;;;19.90;69.20;;;;;;5116084;28;19915;-79
2022/08/08 00:43:03;;;;;;;;;;;19.80;69.70;;;;;;5115865;28;19920;-78
2022/08/08 00:45:47;;;;;;;;;;;19.70;70.30;;;;;;5115834;28;20376;-79
2022/08/08 00:48:31;;;;;;;;;;;19.70;70.40;;;;;;5115802;28;19908;-81
2022/08/08 00:50:59;;;;;;;;;;;19.70;70.60;;;;;;5115881;28;19915;-78
2022/08/08 00:53:43;;;;;;;;;;;19.80;70.20;;;;;;5115718;28;19954;-80
2022/08/08 00:56:21;;;;;;;;;;;19.60;70.90;;;;;;5115932;28;19908;-80
2022/08/08 00:59:05;;;;;;;;;;;19.70;70.90;;;;;;5097040;28;19908;-78
2022/08/08 01:01:54;;;;;;;;;;;19.60;71.10;;;;;;5115589;28;19908;-77
2022/08/08 01:04:32;;;;;;;;;;;19.60;71.30;;;;;;5115590;28;19919;-77
2022/08/08 01:06:57;;;;;;;;;;;19.70;70.70;;;;;;5115450;28;19915;-78
2022/08/08 01:09:41;;;;;;;;;;;19.60;71.10;;;;;;5115317;28;19907;-78
2022/08/08 01:12:16;;;;;;;;;;;19.50;71.50;;;;;;5115279;28;19912;-79
2022/08/08 01:15:07;;;;;;;;;;;19.50;71.30;;;;;;5115261;28;19943;-80
2022/08/08 01:17:32;;;;;;;;;;;19.50;71.30;;;;;;5115593;28;20057;-82
2022/08/08 01:20:16;;;;;;;;;;;19.40;72.10;;;;;;5115226;28;20415;-82
2022/08/08 01:22:47;;;;;;;;;;;19.30;71.80;;;;;;5115180;28;20390;-80
2022/08/08 01:25:19;;;;;;;;;;;19.20;72.20;;;;;;5115252;28;19973;-80
2022/08/08 01:27:51;;;;;;;;;;;19.10;72.60;;;;;;5115130;28;19961;-77
2022/08/08 01:30:35;;;;;;;;;;;18.90;73.90;;;;;;5096779;28;19908;-77
2022/08/08 01:33:19;;;;;;;;;;;18.80;74.40;;;;;;5115062;28;19915;-79
2022/08/08 01:36:03;;;;;;;;;;;18.70;75.10;;;;;;5115615;28;20314;-76
2022/08/08 01:38:28;;;;;;;;;;;18.70;75.00;;;;;;5114071;28;19908;-77
2022/08/08 01:41:06;;;;;;;;;;;18.60;75.30;;;;;;5114841;28;19965;-81
2022/08/08 01:43:48;;;;;;;;;;;18.50;76.50;;;;;;5115115;28;19976;-79
2022/08/08 01:46:14;;;;;;;;;;;18.30;77.80;;;;;;5115693;28;19911;-78
2022/08/08 01:48:45;;;;;;;;;;;18.30;79.20;;;;;;5114602;28;19914;-78
2022/08/08 01:51:30;;;;;;;;;;;18.30;78.20;;;;;;5115321;28;19912;-78
2022/08/08 01:54:00;;;;;;;;;;;18.30;78.20;;;;;;5115001;28;19914;-80
2022/08/08 01:56:36;;;;;;;;;;;18.20;78.50;;;;;;5114868;28;19908;-81
2022/08/08 01:59:09;;;;;;;;;;;18.20;77.50;;;;;;5114497;28;20303;-78
2022/08/08 02:01:47;;;;;;;;;;;18.10;78.60;;;;;;5114970;28;20347;-81
2022/08/08 02:04:12;;;;;;;;;;;18.10;79.20;;;;;;5114627;28;19918;-77
2022/08/08 02:06:57;;;;;;;;;;;18.10;79.50;;;;;;5096321;28;19955;-78
2022/08/08 02:09:28;;;;;;;;;;;18.00;80.60;;;;;;5114616;28;19958;-80
2022/08/08 02:11:53;;;;;;;;;;;17.90;80.60;;;;;;5114526;28;19959;-80
2022/08/08 02:14:39;;;;;;;;;;;17.90;80.30;;;;;;5114377;28;19911;-80
2022/08/08 02:17:23;;;;;;;;;;;17.90;80.60;;;;;;5114396;28;19908;-79
2022/08/08 02:20:07;;;;;;;;;;;17.90;81.30;;;;;;5114182;28;19907;-79
2022/08/08 02:22:42;;;;;;;;;;;17.80;81.70;;;;;;5096043;28;20345;-80
2022/08/08 02:25:13;;;;;;;;;;;17.70;82.60;;;;;;5114186;28;19915;-80
2022/08/08 02:27:52;;;;;;;;;;;17.60;84.20;;;;;;5114402;28;19965;-77
2022/08/08 02:30:24;;;;;;;;;;;17.60;83.50;;;;;;5114530;28;19907;-79
2022/08/08 02:33:09;;;;;;;;;;;17.60;83.60;;;;;;5114087;28;19998;-77
2022/08/08 02:35:35;;;;;;;;;;;17.60;83.30;;;;;;5096379;28;19912;-77
2022/08/08 02:38:12;;;;;;;;;;;17.50;83.90;;;;;;5114197;28;19969;-78
2022/08/08 02:40:38;;;;;;;;;;;17.60;83.40;;;;;;5114442;28;19907;-77
2022/08/08 02:43:30;;;;;;;;;;;17.50;84.20;;;;;;5113698;28;19968;-80
2022/08/08 02:46:14;;;;;;;;;;;17.50;84.70;;;;;;5114277;28;19911;-78
2022/08/08 02:48:58;;;;;;;;;;;17.40;85.30;;;;;;5114125;28;19908;-78
2022/08/08 02:51:33;;;;;;;;;;;17.30;86.20;;;;;;5118157;28;19907;-80
2022/08/08 02:53:58;;;;;;;;;;;17.20;87.30;;;;;;5118355;28;20003;-79
2022/08/08 02:56:24;;;;;;;;;;;17.10;90.80;;;;;;5117983;28;19947;-79
2022/08/08 02:58:52;;;;;;;;;;;17.00;90.60;;;;;;5099742;28;19933;-80
2022/08/08 03:01:37;;;;;;;;;;;17.20;90.20;;;;;;5117916;28;20352;-79
2022/08/08 03:04:08;;;;;;;;;;;17.20;89.10;;;;;;5117752;28;19947;-79
2022/08/08 03:06:49;;;;;;;;;;;17.20;90.20;;;;;;5118113;28;19917;-77
2022/08/08 03:09:33;;;;;;;;;;;17.10;90.30;;;;;;5117756;28;19915;-80
2022/08/08 03:12:01;;;;;;;;;;;17.10;90.60;;;;;;5117631;28;19911;-77
2022/08/08 03:14:27;;;;;;;;;;;16.90;91.00;;;;;;5117597;28;20386;-81
2022/08/08 03:17:11;;;;;;;;;;;16.90;91.00;;;;;;5118039;28;19908;-80
2022/08/08 03:19:55;;;;;;;;;;;17.00;90.60;;;;;;5099503;28;19908;-78
2022/08/08 03:22:21;;;;;;;;;;;17.10;90.60;;;;;;5117554;28;19994;-78
2022/08/08 03:24:46;;;;;;;;;;;17.00;91.30;;;;;;5117206;28;19958;-80
2022/08/08 03:27:16;;;;;;;;;;;17.00;91.60;;;;;;5117907;28;20423;-78
2022/08/08 03:29:45;;;;;;;;;;;16.90;91.50;;;;;;5117390;28;19912;-77
2022/08/08 03:34:55;;;;;;;;;;;16.90;91.80;;;;;;5117508;28;19919;-78
2022/08/08 03:37:20;;;;;;;;;;;16.70;92.60;;;;;;5117078;28;19907;-78
2022/08/08 03:39:46;;;;;;;;;;;16.80;92.20;;;;;;5117260;28;19908;-79
2022/08/08 03:42:15;;;;;;;;;;;16.80;92.30;;;;;;5116731;28;20006;-77
2022/08/08 03:44:41;;;;;;;;;;;16.80;91.80;;;;;;5098530;28;19925;-77
2022/08/08 03:47:06;;;;;;;;;;;16.70;91.80;;;;;;5116963;28;20002;-78
2022/08/08 03:49:32;;;;;;;;;;;16.70;91.90;;;;;;5116959;28;19907;-79
2022/08/08 03:51:57;;;;;;;;;;;16.50;93.20;;;;;;5116923;28;20010;-79
2022/08/08 03:54:23;;;;;;;;;;;16.50;93.20;;;;;;5116444;28;19915;-80
2022/08/08 03:56:49;;;;;;;;;;;16.40;94.40;;;;;;5116770;28;19915;-78
2022/08/08 03:59:15;;;;;;;;;;;16.20;96.60;;;;;;5116906;28;19914;-80
2022/08/08 04:01:41;;;;;;;;;;;16.00;98.70;;;;;;5115534;28;19908;-77
2022/08/08 04:04:07;;;;;;;;;;;16.10;98.80;;;;;;5116581;28;19961;-78
2022/08/08 04:06:33;;;;;;;;;;;16.00;99.00;;;;;;5117147;28;19995;-76
2022/08/08 04:08:59;;;;;;;;;;;16.10;97.90;;;;;;5116624;28;19908;-81
2022/08/08 04:11:25;;;;;;;;;;;16.10;99.90;;;;;;5116422;28;19907;-79
2022/08/08 04:13:51;;;;;;;;;;;16.00;99.90;;;;;;5116431;28;19957;-77
2022/08/08 04:16:17;;;;;;;;;;;16.10;99.90;;;;;;5116305;28;19915;-81
2022/08/08 04:18:43;;;;;;;;;;;16.10;99.80;;;;;;5116339;28;19908;-77
2022/08/08 04:21:08;;;;;;;;;;;16.20;98.60;;;;;;5116127;28;19908;-79
2022/08/08 04:23:34;;;;;;;;;;;16.40;98.30;;;;;;5116210;28;19930;-77
2022/08/08 04:26:00;;;;;;;;;;;16.30;98.00;;;;;;5116459;28;19915;-77
2022/08/08 04:28:25;;;;;;;;;;;16.20;98.30;;;;;;5116027;28;19908;-80
2022/08/08 04:30:51;;;;;;;;;;;16.20;97.80;;;;;;5116087;28;19918;-80
2022/08/08 04:33:16;;;;;;;;;;;15.90;98.60;;;;;;5115982;28;19915;-79
2022/08/08 04:35:42;;;;;;;;;;;15.70;99.90;;;;;;5116541;28;20006;-78
2022/08/08 04:38:07;;;;;;;;;;;15.30;99.90;;;;;;5116035;28;19908;-78
2022/08/08 04:40:33;;;;;;;;;;;15.10;99.90;;;;;;5115826;28;19964;-77
2022/08/08 04:42:59;;;;;;;;;;;15.10;99.90;;;;;;5115811;28;19920;-78
2022/08/08 04:45:25;;;;;;;;;;;15.10;99.90;;;;;;5115657;28;19911;-78
2022/08/08 04:47:51;;;;;;;;;;;15.10;99.90;;;;;;5115744;28;20368;-78
2022/08/08 04:50:16;;;;;;;;;;;15.00;99.90;;;;;;5115752;28;19908;-77
2022/08/08 04:52:42;;;;;;;;;;;14.90;99.90;;;;;;5115987;28;19907;-80
2022/08/08 04:55:07;;;;;;;;;;;14.80;99.90;;;;;;5115637;28;19915;-79
2022/08/08 04:57:33;;;;;;;;;;;15.00;99.90;;;;;;5115490;28;19956;-79
2022/08/08 04:59:58;;;;;;;;;;;15.20;99.90;;;;;;5096995;28;19912;-80
2022/08/08 05:02:24;;;;;;;;;;;15.20;99.90;;;;;;5115654;28;19951;-81
2022/08/08 05:04:50;;;;;;;;;;;15.60;99.90;;;;;;5115334;28;20342;-77
2022/08/08 05:07:15;;;;;;;;;;;15.80;99.90;;;;;;5115253;28;19908;-79
2022/08/08 05:09:41;;;;;;;;;;;15.80;99.90;;;;;;5115489;28;19999;-79
2022/08/08 05:12:07;;;;;;;;;;;15.90;99.90;;;;;;5114950;28;19908;-80
2022/08/08 05:14:32;;;;;;;;;;;15.90;99.90;;;;;;5114833;28;19907;-81
2022/08/08 05:16:58;;;;;;;;;;;15.80;99.90;;;;;;5115759;28;19912;-78
2022/08/08 05:19:23;;;;;;;;;;;16.10;99.90;;;;;;5115023;28;19908;-78
2022/08/08 05:21:52;;;;;;;;;;;16.30;99.90;;;;;;5115359;28;19907;-77
2022/08/08 05:24:18;;;;;;;;;;;16.40;99.90;;;;;;5114981;28;19916;-78
2022/08/08 05:26:46;;;;;;;;;;;16.40;99.90;;;;;;5115172;28;19956;-79
2022/08/08 05:29:12;;;;;;;;;;;16.40;99.90;;;;;;5096475;28;20367;-78
2022/08/08 05:31:38;;;;;;;;;;;16.50;99.90;;;;;;5096516;28;19908;-78
2022/08/08 05:34:04;;;;;;;;;;;16.30;99.90;;;;;;5114796;28;19908;-79
2022/08/08 05:36:34;;;;;;;;;;;16.20;99.90;;;;;;5115397;28;19939;-79
2022/08/08 05:39:02;;;;;;;;;;;16.20;99.90;;;;;;5114689;28;19908;-80
2022/08/08 05:41:28;;;;;;;;;;;16.20;99.90;;;;;;5114448;28;19915;-81
2022/08/08 05:44:03;;;;;;;;;;;16.40;99.90;;;;;;5114377;28;19911;-81
2022/08/08 05:46:28;;;;;;;;;;;16.60;99.90;;;;;;5114824;28;19915;-78
2022/08/08 05:48:54;;;;;;;;;;;16.70;99.90;;;;;;5114572;28;19908;-77
2022/08/08 05:51:20;;;;;;;;;;;16.60;99.90;;;;;;5114717;28;19958;-79
2022/08/08 05:53:46;;;;;;;;;;;16.60;99.90;;;;;;5114324;28;20387;-80
2022/08/08 05:56:12;;;;;;;;;;;16.80;99.90;;;;;;5114318;28;19911;-80
2022/08/08 05:58:39;;;;;;;;;;;17.00;99.90;;;;;;5114386;28;19908;-79
2022/08/08 06:01:06;;;;;;;;;;;17.10;99.90;;;;;;5114428;28;19915;-81
2022/08/08 06:03:32;;;;;;;;;;;17.20;99.90;;;;;;5114195;28;20470;-81
2022/08/08 06:06:05;;;;;;;;;;;17.30;99.90;;;;;;5114215;28;20383;-77
2022/08/08 06:08:57;;;;;;;;;;;17.40;99.90;;;;;;5114172;28;19907;-78
2022/08/08 06:11:23;;;;;;;;;;;17.40;99.90;;;;;;5109340;28;19908;-80
2022/08/08 06:13:49;;;;;;;;;;;17.40;99.90;;;;;;5114491;28;19915;-77
2022/08/08 06:16:15;;;;;;;;;;;17.30;99.90;;;;;;5114118;28;19914;-78
2022/08/08 06:18:41;;;;;;;;;;;17.40;99.90;;;;;;5114486;28;19965;-80
2022/08/08 06:21:07;;;;;;;;;;;17.60;99.90;;;;;;5114492;28;19908;-77
2022/08/08 06:23:33;;;;;;;;;;;17.60;99.90;;;;;;5114154;28;19957;-79
2022/08/08 06:26:03;;;;;;;;;;;17.90;99.90;;;;;;5118795;28;19916;-81
2022/08/08 06:28:31;;;;;;;;;;;18.00;99.90;;;;;;5118529;28;19908;-76
2022/08/08 06:31:01;;;;;;;;;;;18.00;99.90;;;;;;5118483;28;19908;-80
2022/08/08 06:33:39;;;;;;;;;;;17.90;99.90;;;;;;5118315;28;19908;-80
2022/08/08 06:36:07;;;;;;;;;;;18.10;99.90;;;;;;5118817;28;20425;-79
2022/08/08 06:38:35;;;;;;;;;;;18.10;99.90;;;;;;5118053;28;20356;-79
2022/08/08 06:41:05;;;;;;;;;;;18.20;99.90;;;;;;5118160;28;19908;-79
2022/08/08 06:43:33;;;;;;;;;;;18.20;99.90;;;;;;5118529;28;19912;-79
2022/08/08 06:46:00;;;;;;;;;;;18.40;99.90;;;;;;5118235;28;19912;-78
2022/08/08 06:48:25;;;;;;;;;;;18.60;98.20;;;;;;5118290;28;19930;-78
2022/08/08 06:50:52;;;;;;;;;;;19.10;96.10;;;;;;5118313;28;20391;-79
2022/08/08 06:53:17;;;;;;;;;;;19.30;92.90;;;;;;5118629;28;20413;-81
2022/08/08 06:55:43;;;;;;;;;;;19.60;87.60;;;;;;5118031;28;19912;-80
2022/08/08 06:58:09;;;;;;;;;;;19.80;80.90;;;;;;5118092;28;19951;-77
2022/08/08 07:00:36;;;;;;;;;;;19.90;81.80;;;;;;5117898;28;19912;-81
2022/08/08 07:03:05;;;;;;;;;;;20.10;76.90;;;;;;5117696;28;19919;-80
2022/08/08 07:05:32;;;;;;;;;;;20.30;77.10;;;;;;5117862;28;19915;-81
2022/08/08 07:08:27;;;;;;;;;;;21.40;73.00;;;;;;5117708;28;19962;-79
2022/08/08 07:10:55;;;;;;;;;;;23.70;67.10;;;;;;5077557;28;20276;-81
2022/08/08 07:13:22;;;;;;;;;;;25.90;61.20;;;;;;5117669;28;19915;-80
2022/08/08 07:15:52;;;;;;;;;;;26.70;56.90;;;;;;5117559;28;19915;-80
2022/08/08 07:18:34;;;;;;;;;;;27.10;54.80;;;;;;5117377;28;20303;-79
2022/08/08 07:21:03;;;;;;;;;;;27.40;53.10;;;;;;5117551;28;19957;-78
2022/08/08 07:23:37;;;;;;;;;;;26.90;53.30;;;;;;5117499;28;19908;-78
2022/08/08 07:26:03;;;;;;;;;;;26.90;53.90;;;;;;5117335;28;19911;-77
2022/08/08 07:28:28;;;;;;;;;;;26.90;54.00;;;;;;5117515;28;20389;-81
2022/08/08 07:30:57;;;;;;;;;;;26.30;53.30;;;;;;5117119;28;19912;-79
2022/08/08 07:33:23;;;;;;;;;;;25.90;54.50;;;;;;5117211;28;19915;-80
2022/08/08 07:35:49;;;;;;;;;;;25.90;55.20;;;;;;5117473;28;19908;-82
2022/08/08 07:38:18;;;;;;;;;;;25.70;53.60;;;;;;5117508;28;19908;-79
2022/08/08 07:40:44;;;;;;;;;;;25.40;54.20;;;;;;5117191;28;19943;-83
2022/08/08 07:43:10;;;;;;;;;;;25.50;54.80;;;;;;5116614;28;19927;-79
2022/08/08 07:45:36;;;;;;;;;;;25.60;54.10;;;;;;5116664;28;19911;-79
2022/08/08 07:48:02;;;;;;;;;;;25.60;53.70;;;;;;5116661;28;20452;-80
2022/08/08 07:50:28;;;;;;;;;;;25.70;54.60;;;;;;5116661;28;19907;-80
2022/08/08 07:52:56;;;;;;;;;;;25.70;54.30;;;;;;5116909;28;19908;-80
2022/08/08 07:55:23;;;;;;;;;;;25.80;54.60;;;;;;5116798;28;19956;-79
2022/08/08 07:58:07;;;;;;;;;;;25.90;53.20;;;;;;5117023;28;19908;-82
2022/08/08 08:00:39;;;;;;;;;;;25.70;53.70;;;;;;5116608;28;19998;-84
2022/08/08 08:03:06;;;;;;;;;;;25.70;53.80;;;;;;5116552;28;19911;-82
2022/08/08 08:05:35;;;;;;;;;;;25.90;53.90;;;;;;5116748;28;19922;-79
2022/08/08 08:08:06;;;;;;;;;;;26.00;53.20;;;;;;5116265;28;20287;-79
2022/08/08 08:10:33;;;;;;;;;;;26.20;53.20;;;;;;5116521;28;19911;-81
2022/08/08 08:13:20;;;;;;;;;;;26.50;52.80;;;;;;5116090;28;20292;-82
2022/08/08 08:16:06;;;;;;;;;;;27.00;52.40;;;;;;5116110;28;19915;-80
2022/08/08 08:18:38;;;;;;;;;;;27.10;51.30;;;;;;5115444;28;20372;-82
2022/08/08 08:21:05;;;;;;;;;;;27.20;51.50;;;;;;5116100;28;20402;-83
2022/08/08 08:23:30;;;;;;;;;;;27.40;51.10;;;;;;5097605;28;20313;-81
2022/08/08 08:25:56;;;;;;;;;;;27.50;50.40;;;;;;5115870;28;19912;-79
2022/08/08 08:28:23;;;;;;;;;;;27.80;50.50;;;;;;5097582;28;20387;-82
2022/08/08 08:30:48;;;;;;;;;;;28.30;50.50;;;;;;5115798;28;19908;-82
2022/08/08 08:33:14;;;;;;;;;;;28.90;49.60;;;;;;5116310;28;19908;-81
2022/08/08 08:35:39;;;;;;;;;;;29.00;48.60;;;;;;5116285;28;19907;-82
2022/08/08 08:38:05;;;;;;;;;;;29.40;48.00;;;;;;5115631;28;19915;-82
2022/08/08 08:40:31;;;;;;;;;;;29.40;48.00;;;;;;5115844;28;19946;-80
2022/08/08 08:42:57;;;;;;;;;;;29.60;46.90;;;;;;5115239;28;19920;-81
2022/08/08 08:45:23;;;;;;;;;;;29.90;46.50;;;;;;5115614;28;19962;-81
2022/08/08 08:47:50;;;;;;;;;;;30.70;46.20;;;;;;5114875;28;19912;-80
2022/08/08 08:50:16;;;;;;;;;;;31.60;45.40;;;;;;5115467;28;20007;-79
2022/08/08 08:52:42;;;;;;;;;;;32.00;44.00;;;;;;5115016;28;19955;-80
2022/08/08 08:55:11;;;;;;;;;;;32.30;43.40;;;;;;5115602;28;20284;-81
2022/08/08 08:57:36;;;;;;;;;;;32.30;42.70;;;;;;5115345;28;19908;-79
2022/08/08 09:00:02;;;;;;;;;;;32.70;42.90;;;;;;5115278;28;20356;-79
2022/08/08 09:02:29;;;;;;;;;;;33.40;42.10;;;;;;5115202;28;19994;-83
2022/08/08 09:04:56;;;;;;;;;;;34.00;41.20;;;;;;5115174;28;19915;-80
2022/08/08 09:07:23;;;;;;;;;;;34.10;40.50;;;;;;5115225;28;20296;-82
2022/08/08 09:09:49;;;;;;;;;;;34.60;40.00;;;;;;5115095;28;20372;-81
2022/08/08 09:12:16;;;;;;;;;;;35.30;39.50;;;;;;5115292;28;19915;-84
2022/08/08 09:14:42;;;;;;;;;;;35.40;39.20;;;;;;5115040;28;20287;-81
2022/08/08 09:17:07;;;;;;;;;;;36.00;38.50;;;;;;5114920;28;19914;-83
2022/08/08 09:19:33;;;;;;;;;;;36.40;38.00;;;;;;5114949;28;19998;-80
2022/08/08 09:21:59;;;;;;;;;;;37.00;37.20;;;;;;5115024;28;20366;-82
2022/08/08 09:24:24;;;;;;;;;;;36.60;37.30;;;;;;5114756;28;19919;-80
2022/08/08 09:26:56;;;;;;;;;;;37.40;36.90;;;;;;5114889;28;20372;-82
2022/08/08 09:29:23;;;;;;;;;;;37.50;35.90;;;;;;5114862;28;19908;-84
2022/08/08 09:31:59;;;;;;;;;;;36.60;35.80;;;;;;5114913;28;19915;-79
2022/08/08 09:34:28;;;;;;;;;;;36.70;36.50;;;;;;5115273;28;19914;-82
2022/08/08 09:37:03;;;;;;;;;;;38.00;36.20;;;;;;5115156;28;19953;-84
2022/08/08 09:39:34;;;;;;;;;;;38.90;35.80;;;;;;5114612;28;19943;-80
2022/08/08 09:42:01;;;;;;;;;;;39.50;35.20;;;;;;5114472;28;19926;-84
2022/08/08 09:44:45;;;;;;;;;;;39.30;34.80;;;;;;5114458;28;20015;-81
2022/08/08 09:47:12;;;;;;;;;;;39.30;34.70;;;;;;5114828;28;20340;-83
2022/08/08 09:49:38;;;;;;;;;;;40.50;35.40;;;;;;5114380;28;19907;-82
2022/08/08 09:52:04;;;;;;;;;;;39.90;34.30;;;;;;5114616;28;20010;-81
2022/08/08 09:54:34;;;;;;;;;;;39.60;34.60;;;;;;5114358;28;19912;-81
2022/08/08 09:57:01;;;;;;;;;;;40.90;34.80;;;;;;5114369;28;19908;-84
2022/08/08 09:59:29;;;;;;;;;;;42.50;34.20;;;;;;5113454;28;19943;-83
2022/08/08 10:01:58;;;;;;;;;;;43.40;33.00;;;;;;5114264;28;19912;-84
2022/08/08 10:04:25;;;;;;;;;;;44.10;32.50;;;;;;5114313;28;19911;-84
2022/08/08 10:06:52;;;;;;;;;;;46.70;32.80;;;;;;5114239;28;19908;-80
2022/08/08 10:09:32;;;;;;;;;;;48.30;30.50;;;;;;5114325;28;20364;-80
2022/08/08 10:12:02;;;;;;;;;;;48.20;30.00;;;;;;5114423;28;19915;-83
2022/08/08 10:14:35;;;;;;;;;;;47.30;29.60;;;;;;5114619;28;19908;-82
2022/08/08 10:17:04;;;;;;;;;;;46.40;29.80;;;;;;5114113;28;19962;-82
2022/08/08 10:19:37;;;;;;;;;;;46.20;30.40;;;;;;5114236;28;19977;-79
2022/08/08 10:22:03;;;;;;;;;;;48.20;29.90;;;;;;5114080;28;19966;-84
2022/08/08 10:24:29;;;;;;;;;;;49.50;29.50;;;;;;5114487;28;19915;-82
2022/08/08 10:26:58;;;;;;;;;;;50.30;29.60;;;;;;5114462;28;20283;-83
2022/08/08 10:29:38;;;;;;;;;;;50.50;29.20;;;;;;5114467;28;20291;-83
2022/08/08 10:34:51;;;;;;;;;;;50.90;28.90;;;;;;5114698;28;20325;-82
2022/08/08 10:37:28;;;;;;;;;;;51.00;29.00;;;;;;5114778;28;20334;-83
2022/08/08 10:39:54;;;;;;;;;;;51.60;28.70;;;;;;5114339;28;19908;-81
2022/08/08 10:42:22;;;;;;;;;;;49.80;28.10;;;;;;5114257;28;19927;-81
2022/08/08 10:44:47;;;;;;;;;;;49.60;28.50;;;;;;5114321;28;19919;-83
2022/08/08 10:47:14;;;;;;;;;;;50.30;28.60;;;;;;5115115;28;19908;-81
2022/08/08 10:49:40;;;;;;;;;;;49.50;28.60;;;;;;5114408;28;20356;-83
2022/08/08 10:52:06;;;;;;;;;;;48.80;28.90;;;;;;5114744;28;19915;-80
2022/08/08 10:54:32;;;;;;;;;;;48.50;28.50;;;;;;5114794;28;19911;-79
2022/08/08 10:56:58;;;;;;;;;;;49.50;28.20;;;;;;5096525;28;19915;-80
2022/08/08 10:59:24;;;;;;;;;;;49.60;28.00;;;;;;5114811;28;19908;-82
2022/08/08 11:01:50;;;;;;;;;;;49.90;28.10;;;;;;5114790;28;19931;-83
2022/08/08 11:04:15;;;;;;;;;;;51.20;28.00;;;;;;5114646;28;19935;-81
2022/08/08 11:06:41;;;;;;;;;;;51.60;28.00;;;;;;5115015;28;19970;-83
2022/08/08 11:09:07;;;;;;;;;;;50.30;28.00;;;;;;5114895;28;20436;-83
2022/08/08 11:11:37;;;;;;;;;;;50.00;27.40;;;;;;5117789;28;19908;-81
2022/08/08 11:14:04;;;;;;;;;;;50.30;27.80;;;;;;5119099;28;19915;-85
2022/08/08 11:16:31;;;;;;;;;;;50.70;27.70;;;;;;5119148;28;20020;-81
2022/08/08 11:18:58;;;;;;;;;;;49.60;27.60;;;;;;5118364;28;20000;-84
2022/08/08 11:21:24;;;;;;;;;;;49.70;28.30;;;;;;5118444;28;19915;-81
2022/08/08 11:23:52;;;;;;;;;;;49.30;28.30;;;;;;5118578;28;19908;-81
2022/08/08 11:26:18;;;;;;;;;;;48.70;28.40;;;;;;5118464;28;20366;-81
2022/08/08 11:28:44;;;;;;;;;;;49.00;28.50;;;;;;5117900;28;19908;-85
2022/08/08 11:31:13;;;;;;;;;;;48.10;28.20;;;;;;5117903;28;19914;-82
2022/08/08 11:33:39;;;;;;;;;;;47.30;28.00;;;;;;5118477;28;19956;-82
2022/08/08 11:36:05;;;;;;;;;;;47.00;27.90;;;;;;5118791;28;20389;-84
2022/08/08 11:38:31;;;;;;;;;;;46.40;27.90;;;;;;5118512;28;19915;-81
2022/08/08 11:40:57;;;;;;;;;;;46.50;27.60;;;;;;5118479;28;19907;-81
2022/08/08 11:43:27;;;;;;;;;;;47.60;28.20;;;;;;5117995;28;19920;-82
2022/08/08 11:45:52;;;;;;;;;;;46.60;27.90;;;;;;5118039;28;19947;-81
2022/08/08 11:48:19;;;;;;;;;;;46.10;27.70;;;;;;5117980;28;19961;-81
2022/08/08 11:50:45;;;;;;;;;;;45.30;27.80;;;;;;5118085;28;20018;-81
2022/08/08 11:53:11;;;;;;;;;;;45.20;28.30;;;;;;5117630;28;20414;-83
2022/08/08 11:55:47;;;;;;;;;;;45.30;28.50;;;;;;5117517;28;19916;-82
2022/08/08 11:58:13;;;;;;;;;;;46.40;28.30;;;;;;5117781;28;19953;-83
2022/08/08 12:00:45;;;;;;;;;;;45.70;27.90;;;;;;5117428;28;19911;-83
2022/08/08 12:03:24;;;;;;;;;;;45.70;27.80;;;;;;5117553;28;20371;-81
2022/08/08 12:05:51;;;;;;;;;;;47.00;28.00;;;;;;5117021;28;20387;-82
2022/08/08 12:08:28;;;;;;;;;;;48.00;27.90;;;;;;5117053;28;19908;-83
2022/08/08 12:10:57;;;;;;;;;;;49.90;27.70;;;;;;5117235;28;19907;-84
2022/08/08 12:13:24;;;;;;;;;;;51.20;27.40;;;;;;5117127;28;19908;-83
2022/08/08 12:15:50;;;;;;;;;;;49.60;26.90;;;;;;5116802;28;20290;-84
2022/08/08 12:18:19;;;;;;;;;;;50.80;27.20;;;;;;5117047;28;19908;-83
2022/08/08 12:20:45;;;;;;;;;;;50.60;26.90;;;;;;5116615;28;19919;-82
2022/08/08 12:23:10;;;;;;;;;;;51.90;27.30;;;;;;5115969;28;20297;-84
2022/08/08 12:25:36;;;;;;;;;;;52.10;27.20;;;;;;5116675;28;19908;-84
2022/08/08 12:28:08;;;;;;;;;;;51.80;27.30;;;;;;5116895;28;20006;-80
2022/08/08 12:30:34;;;;;;;;;;;52.00;27.10;;;;;;5116755;28;19908;-82
2022/08/08 12:33:00;;;;;;;;;;;51.60;26.60;;;;;;5116634;28;19908;-83
2022/08/08 12:35:31;;;;;;;;;;;50.70;26.70;;;;;;5116592;28;19934;-82
2022/08/08 12:38:06;;;;;;;;;;;51.20;27.00;;;;;;5116541;28;20288;-83
2022/08/08 12:40:42;;;;;;;;;;;51.90;27.00;;;;;;5116893;28;19912;-83
2022/08/08 12:43:09;;;;;;;;;;;51.70;26.90;;;;;;5116502;28;19969;-85
2022/08/08 12:45:39;;;;;;;;;;;52.30;27.30;;;;;;5116314;28;19924;-81
2022/08/08 12:48:16;;;;;;;;;;;51.50;26.90;;;;;;5116818;28;19912;-81
2022/08/08 12:50:43;;;;;;;;;;;52.60;27.00;;;;;;5116377;28;19912;-81
2022/08/08 12:53:26;;;;;;;;;;;51.60;26.80;;;;;;5116407;28;20364;-82
2022/08/08 12:55:52;;;;;;;;;;;50.40;26.90;;;;;;5116018;28;19919;-82
2022/08/08 12:58:18;;;;;;;;;;;49.90;27.20;;;;;;5116106;28;19908;-81
2022/08/08 13:00:44;;;;;;;;;;;48.90;26.30;;;;;;5097534;28;19915;-84
2022/08/08 13:03:21;;;;;;;;;;;48.50;26.60;;;;;;5115901;28;19908;-82
2022/08/08 13:05:46;;;;;;;;;;;49.10;26.80;;;;;;5115771;28;19908;-83
2022/08/08 13:08:16;;;;;;;;;;;50.60;27.30;;;;;;5115690;28;19919;-81
2022/08/08 13:10:49;;;;;;;;;;;50.90;26.70;;;;;;5115664;28;20022;-82
2022/08/08 13:13:25;;;;;;;;;;;50.30;27.50;;;;;;5115830;28;20424;-81
2022/08/08 13:15:51;;;;;;;;;;;51.30;27.60;;;;;;5115588;28;19919;-81
2022/08/08 13:18:17;;;;;;;;;;;52.30;27.20;;;;;;5115461;28;19908;-84
2022/08/08 13:20:44;;;;;;;;;;;49.70;26.80;;;;;;5116150;28;19918;-81
2022/08/08 13:23:14;;;;;;;;;;;48.30;27.00;;;;;;5115162;28;20307;-81
2022/08/08 13:25:40;;;;;;;;;;;47.60;27.00;;;;;;5116019;28;19973;-82
2022/08/08 13:28:06;;;;;;;;;;;47.50;27.10;;;;;;5115251;28;19910;-81
2022/08/08 13:30:31;;;;;;;;;;;47.70;27.20;;;;;;5115260;28;19911;-82
2022/08/08 13:32:58;;;;;;;;;;;49.30;27.30;;;;;;5115688;28;20352;-84
2022/08/08 13:35:24;;;;;;;;;;;50.50;27.10;;;;;;5115167;28;19916;-81
2022/08/08 13:37:49;;;;;;;;;;;50.00;26.80;;;;;;5115667;28;19915;-82
2022/08/08 13:40:18;;;;;;;;;;;48.50;26.60;;;;;;5115123;28;19907;-83
2022/08/08 13:42:44;;;;;;;;;;;48.20;26.70;;;;;;5114712;28;20407;-84
2022/08/08 13:45:12;;;;;;;;;;;46.40;26.80;;;;;;5115302;28;19908;-80
2022/08/08 13:47:39;;;;;;;;;;;46.30;27.10;;;;;;5114632;28;19991;-80
2022/08/08 13:50:08;;;;;;;;;;;46.20;27.20;;;;;;5114706;28;19970;-80
2022/08/08 13:52:34;;;;;;;;;;;45.50;27.20;;;;;;5114554;28;20341;-81
2022/08/08 13:55:01;;;;;;;;;;;44.60;27.50;;;;;;5114625;28;19945;-81
2022/08/08 13:57:29;;;;;;;;;;;44.60;27.70;;;;;;5114448;28;19908;-83
2022/08/08 14:00:10;;;;;;;;;;;44.80;27.40;;;;;;5114464;28;19912;-81
2022/08/08 14:02:36;;;;;;;;;;;44.50;27.50;;;;;;5114341;28;19950;-82
2022/08/08 14:05:09;;;;;;;;;;;43.40;27.50;;;;;;5095917;28;20287;-81
2022/08/08 14:07:42;;;;;;;;;;;43.10;27.50;;;;;;5114200;28;19908;-80
2022/08/08 14:10:09;;;;;;;;;;;43.50;28.20;;;;;;5114032;28;19912;-82
2022/08/08 14:12:38;;;;;;;;;;;44.10;28.50;;;;;;5114078;28;19957;-80
2022/08/08 14:15:04;;;;;;;;;;;43.80;28.70;;;;;;5114000;28;19966;-82
2022/08/08 14:17:30;;;;;;;;;;;43.30;27.70;;;;;;5114072;28;19951;-83
2022/08/08 14:20:08;;;;;;;;;;;42.60;27.60;;;;;;5114275;28;19947;-82
2022/08/08 14:22:38;;;;;;;;;;;40.80;27.70;;;;;;5114131;28;19908;-82
2022/08/08 14:25:05;;;;;;;;;;;40.40;27.60;;;;;;5113987;28;19908;-83
2022/08/08 14:27:38;;;;;;;;;;;40.20;27.70;;;;;;5114326;28;20287;-80
2022/08/08 14:30:08;;;;;;;;;;;39.70;27.80;;;;;;5114053;28;20002;-79
2022/08/08 14:32:43;;;;;;;;;;;38.90;28.10;;;;;;5114198;28;20379;-82
2022/08/08 14:35:09;;;;;;;;;;;39.20;28.60;;;;;;5113782;28;19912;-81
2022/08/08 14:37:42;;;;;;;;;;;39.40;28.60;;;;;;5114551;28;19915;-79
2022/08/08 14:40:08;;;;;;;;;;;39.80;28.20;;;;;;5113811;28;20352;-81